sensor_id;sensor_type;location;lat;lon;timestamp;temperature;humidity
8402;DHT22;4238;48.404;9.498;2023-08-12T04:00:53;15.90;99.90
8402;DHT22;4238;48.404;9.498;2023-08-12T04:03:19;15.90;99.90
8402;DHT22;4238;48.404;9.498;2023-08-12T04:05:48;15.90;99.90
8402;DHT22;4238;48.404;9.498;2023-08-12T04:08:15;16.00;99.90
8402;DHT22;4238;48.404;9.498;2023-08-12T04:10:45;16.00;99.90
8402;DHT22;4238;48.404;9.498;2023-08-12T04:13:13;16.00;99.90
8402;DHT22;4238;48.404;9.498;2023-08-12T04:15:40;16.10;99.90
8402;DHT22;4238;48.404;9.498;2023-08-12T04:18:08;16.20;99.90
8402;DHT22;4238;48.404;9.498;2023-08-12T04:20:37;16.30;99.90
8402;DHT22;4238;48.404;9.498;2023-08-12T04:23:04;16.30;99.90
8402;DHT22;4238;48.404;9.498;2023-08-12T04:25:31;16.30;99.90
8402;DHT22;4238;48.404;9.498;2023-08-12T04:27:58;16.40;99.90
8402;DHT22;4238;48.404;9.498;2023-08-12T04:30:25;16.40;99.90
8402;DHT22;4238;48.404;9.498;2023-08-12T04:32:52;16.50;99.90
8402;DHT22;4238;48.404;9.498;2023-08-12T04:35:20;16.60;99.90
8402;DHT22;4238;48.404;9.498;2023-08-12T04:37:47;16.70;99.90
8402;DHT22;4238;48.404;9.498;2023-08-12T04:40:14;16.70;99.90
8402;DHT22;4238;48.404;9.498;2023-08-12T04:42:40;16.80;99.90
8402;DHT22;4238;48.404;9.498;2023-08-12T04:45:08;16.70;99.90
8402;DHT22;4238;48.404;9.498;2023-08-12T04:47:35;16.80;99.90
8402;DHT22;4238;48.404;9.498;2023-08-12T04:50:03;16.80;99.90
8402;DHT22;4238;48.404;9.498;2023-08-12T04:52:33;16.90;99.90
8402;DHT22;4238;48.404;9.498;2023-08-12T04:55:00;17.00;99.90
8402;DHT22;4238;48.404;9.498;2023-08-12T04:57:26;16.90;99.90
8402;DHT22;4238;48.404;9.498;2023-08-12T04:59:53;17.00;99.90
8402;DHT22;4238;48.404;9.498;2023-08-12T05:02:20;17.10;99.90
8402;DHT22;4238;48.404;9.498;2023-08-12T05:04:48;17.10;99.90
8402;DHT22;4238;48.404;9.498;2023-08-12T05:07:15;17.20;99.90
8402;DHT22;4238;48.404;9.498;2023-08-12T05:09:43;17.20;99.90
8402;DHT22;4238;48.404;9.498;2023-08-12T05:12:10;17.20;99.90
8402;DHT22;4238;48.404;9.498;2023-08-12T05:14:38;17.30;99.90
8402;DHT22;4238;48.404;9.498;2023-08-12T05:17:06;17.30;99.90
8402;DHT22;4238;48.404;9.498;2023-08-12T05:19:33;17.40;99.90
8402;DHT22;4238;48.404;9.498;2023-08-12T05:22:00;17.40;99.90
8402;DHT22;4238;48.404;9.498;2023-08-12T05:24:27;17.50;99.90
8402;DHT22;4238;48.404;9.498;2023-08-12T05:26:55;17.50;99.90
8402;DHT22;4238;48.404;9.498;2023-08-12T05:29:22;17.50;99.90
8402;DHT22;4238;48.404;9.498;2023-08-12T05:31:49;17.60;99.90
8402;DHT22;4238;48.404;9.498;2023-08-12T05:34:16;17.60;99.90
8402;DHT22;4238;48.404;9.498;2023-08-12T05:36:43;17.60;99.90
8402;DHT22;4238;48.404;9.498;2023-08-12T05:39:09;17.70;99.90
8402;DHT22;4238;48.404;9.498;2023-08-12T05:41:36;17.80;99.90
8402;DHT22;4238;48.404;9.498;2023-08-12T05:44:05;17.90;99.90
8402;DHT22;4238;48.404;9.498;2023-08-12T05:46:32;18.00;99.90
8402;DHT22;4238;48.404;9.498;2023-08-12T05:48:59;18.00;99.90
8402;DHT22;4238;48.404;9.498;2023-08-12T05:51:26;18.10;99.90
8402;DHT22;4238;48.404;9.498;2023-08-12T05:53:53;18.20;99.90
8402;DHT22;4238;48.404;9.498;2023-08-12T05:56:19;18.20;99.90
8402;DHT22;4238;48.404;9.498;2023-08-12T05:58:46;18.40;99.90
8402;DHT22;4238;48.404;9.498;2023-08-12T06:01:14;18.50;99.90
8402;DHT22;4238;48.404;9.498;2023-08-12T06:03:41;18.60;99.90
8402;DHT22;4238;48.404;9.498;2023-08-12T06:06:08;18.70;99.90
8402;DHT22;4238;48.404;9.498;2023-08-12T06:08:35;18.80;99.90
8402;DHT22;4238;48.404;9.498;2023-08-12T06:11:02;18.90;99.90
8402;DHT22;4238;48.404;9.498;2023-08-12T06:13:29;19.00;99.90
8402;DHT22;4238;48.404;9.498;2023-08-12T06:15:55;19.00;99.90
8402;DHT22;4238;48.404;9.498;2023-08-12T06:18:24;19.20;99.90
8402;DHT22;4238;48.404;9.498;2023-08-12T06:20:51;19.40;99.90
8402;DHT22;4238;48.404;9.498;2023-08-12T06:23:17;19.60;99.90
8402;DHT22;4238;48.404;9.498;2023-08-12T06:25:44;19.60;99.90
8402;DHT22;4238;48.404;9.498;2023-08-12T06:28:11;19.70;99.90
8402;DHT22;4238;48.404;9.498;2023-08-12T06:30:38;19.90;99.90
8402;DHT22;4238;48.404;9.498;2023-08-12T06:33:05;20.30;99.90
8402;DHT22;4238;48.404;9.498;2023-08-12T06:35:33;20.80;90.60
8402;DHT22;4238;48.404;9.498;2023-08-12T06:38:00;21.40;73.70
8402;DHT22;4238;48.404;9.498;2023-08-12T06:40:27;21.90;51.50
8402;DHT22;4238;48.404;9.498;2023-08-12T06:42:54;22.30;42.70
8402;DHT22;4238;48.404;9.498;2023-08-12T06:45:20;22.70;38.10
8402;DHT22;4238;48.404;9.498;2023-08-12T06:47:47;23.10;35.60
8402;DHT22;4238;48.404;9.498;2023-08-12T06:50:14;23.10;9.80
8402;DHT22;4238;48.404;9.498;2023-08-12T06:52:42;22.90;4.10
8402;DHT22;4238;48.404;9.498;2023-08-12T06:55:09;22.60;21.20
8402;DHT22;4238;48.404;9.498;2023-08-12T06:57:36;22.40;17.50
8402;DHT22;4238;48.404;9.498;2023-08-12T07:00:06;22.10;24.10
8402;DHT22;4238;48.404;9.498;2023-08-12T07:02:34;22.00;49.60
8402;DHT22;4238;48.404;9.498;2023-08-12T07:05:01;21.90;61.30
8402;DHT22;4238;48.404;9.498;2023-08-12T07:07:28;21.90;44.70
8402;DHT22;4238;48.404;9.498;2023-08-12T07:09:56;21.90;48.70
8402;DHT22;4238;48.404;9.498;2023-08-12T07:12:23;21.90;64.30
8402;DHT22;4238;48.404;9.498;2023-08-12T07:14:50;21.90;68.90
8402;DHT22;4238;48.404;9.498;2023-08-12T07:17:16;22.10;61.40
8402;DHT22;4238;48.404;9.498;2023-08-12T07:19:43;22.30;65.40
8402;DHT22;4238;48.404;9.498;2023-08-12T07:22:10;22.40;51.70
8402;DHT22;4238;48.404;9.498;2023-08-12T07:24:37;22.50;41.50
8402;DHT22;4238;48.404;9.498;2023-08-12T07:27:05;22.60;19.00
8402;DHT22;4238;48.404;9.498;2023-08-12T07:29:32;23.10;27.40
8402;DHT22;4238;48.404;9.498;2023-08-12T07:31:59;23.20;1.00
8402;DHT22;4238;48.404;9.498;2023-08-12T07:34:26;23.20;1.00
8402;DHT22;4238;48.404;9.498;2023-08-12T07:36:52;23.20;1.00
8402;DHT22;4238;48.404;9.498;2023-08-12T07:39:19;23.30;1.00
8402;DHT22;4238;48.404;9.498;2023-08-12T07:41:47;23.80;1.00
8402;DHT22;4238;48.404;9.498;2023-08-12T07:44:15;24.30;1.00
8402;DHT22;4238;48.404;9.498;2023-08-12T07:46:42;24.70;1.00
8402;DHT22;4238;48.404;9.498;2023-08-12T07:49:08;24.90;99.90
8402;DHT22;4238;48.404;9.498;2023-08-12T07:51:35;24.80;1.00
8402;DHT22;4238;48.404;9.498;2023-08-12T07:54:02;25.10;1.00
8402;DHT22;4238;48.404;9.498;2023-08-12T07:56:29;25.40;99.90
8402;DHT22;4238;48.404;9.498;2023-08-12T07:58:56;25.60;1.00
8402;DHT22;4238;48.404;9.498;2023-08-12T08:01:25;26.00;99.90
8402;DHT22;4238;48.404;9.498;2023-08-12T08:03:51;26.40;1.00
8402;DHT22;4238;48.404;9.498;2023-08-12T08:06:18;26.70;1.00
8402;DHT22;4238;48.404;9.498;2023-08-12T08:08:45;27.00;99.90
8402;DHT22;4238;48.404;9.498;2023-08-12T08:11:12;27.20;99.90
8402;DHT22;4238;48.404;9.498;2023-08-12T08:13:39;27.40;99.90
8402;DHT22;4238;48.404;9.498;2023-08-12T08:16:06;27.50;99.90
8402;DHT22;4238;48.404;9.498;2023-08-12T08:18:34;27.50;99.90
8402;DHT22;4238;48.404;9.498;2023-08-12T08:21:01;27.50;1.00
8402;DHT22;4238;48.404;9.498;2023-08-12T08:23:27;27.30;1.00
8402;DHT22;4238;48.404;9.498;2023-08-12T08:25:54;27.00;1.00
8402;DHT22;4238;48.404;9.498;2023-08-12T08:28:22;26.90;1.00
8402;DHT22;4238;48.404;9.498;2023-08-12T08:30:48;26.90;1.00
8402;DHT22;4238;48.404;9.498;2023-08-12T08:33:15;26.80;99.90
8402;DHT22;4238;48.404;9.498;2023-08-12T08:35:44;26.80;1.00
8402;DHT22;4238;48.404;9.498;2023-08-12T08:38:10;26.70;99.90
8402;DHT22;4238;48.404;9.498;2023-08-12T08:40:38;26.70;1.00
8402;DHT22;4238;48.404;9.498;2023-08-12T08:43:07;26.80;1.00
8402;DHT22;4238;48.404;9.498;2023-08-12T08:45:34;26.80;1.00
8402;DHT22;4238;48.404;9.498;2023-08-12T08:48:02;26.80;1.00
8402;DHT22;4238;48.404;9.498;2023-08-12T08:50:30;26.60;99.90
8402;DHT22;4238;48.404;9.498;2023-08-12T08:53:00;26.60;1.00
8402;DHT22;4238;48.404;9.498;2023-08-12T08:55:28;26.90;1.00
8402;DHT22;4238;48.404;9.498;2023-08-12T08:57:55;27.20;1.00
8402;DHT22;4238;48.404;9.498;2023-08-12T09:00:23;27.30;1.00
8402;DHT22;4238;48.404;9.498;2023-08-12T09:02:51;27.30;1.00
8402;DHT22;4238;48.404;9.498;2023-08-12T09:05:19;27.60;1.00
8402;DHT22;4238;48.404;9.498;2023-08-12T09:07:47;27.80;1.00
8402;DHT22;4238;48.404;9.498;2023-08-12T09:10:17;28.00;1.00
8402;DHT22;4238;48.404;9.498;2023-08-12T09:12:46;28.10;1.00
8402;DHT22;4238;48.404;9.498;2023-08-12T09:15:13;28.10;99.90
8402;DHT22;4238;48.404;9.498;2023-08-12T09:17:42;28.00;99.90
8402;DHT22;4238;48.404;9.498;2023-08-12T09:20:10;27.80;99.90
8402;DHT22;4238;48.404;9.498;2023-08-12T09:22:40;27.70;99.90
8402;DHT22;4238;48.404;9.498;2023-08-12T09:25:08;27.50;1.00
8402;DHT22;4238;48.404;9.498;2023-08-12T09:27:37;27.30;99.90
8402;DHT22;4238;48.404;9.498;2023-08-12T09:30:05;27.30;99.90
8402;DHT22;4238;48.404;9.498;2023-08-12T09:32:33;27.10;1.00
8402;DHT22;4238;48.404;9.498;2023-08-12T09:35:00;27.00;1.00
8402;DHT22;4238;48.404;9.498;2023-08-12T09:37:31;27.10;1.00
8402;DHT22;4238;48.404;9.498;2023-08-12T09:39:57;27.20;1.00
8402;DHT22;4238;48.404;9.498;2023-08-12T09:42:24;27.30;1.00
8402;DHT22;4238;48.404;9.498;2023-08-12T09:44:53;28.00;1.00
8402;DHT22;4238;48.404;9.498;2023-08-12T09:47:19;28.10;99.90
8402;DHT22;4238;48.404;9.498;2023-08-12T09:49:46;28.10;99.90
8402;DHT22;4238;48.404;9.498;2023-08-12T09:52:13;28.00;99.90
8402;DHT22;4238;48.404;9.498;2023-08-12T09:54:41;28.30;99.90
8402;DHT22;4238;48.404;9.498;2023-08-12T09:57:10;28.70;99.90
8402;DHT22;4238;48.404;9.498;2023-08-12T09:59:41;28.60;78.70
8402;DHT22;4238;48.404;9.498;2023-08-12T10:02:15;28.30;84.90
8402;DHT22;4238;48.404;9.498;2023-08-12T10:04:45;27.90;12.70
8402;DHT22;4238;48.404;9.498;2023-08-12T10:07:12;27.70;98.00
8402;DHT22;4238;48.404;9.498;2023-08-12T10:09:39;27.70;99.90
8402;DHT22;4238;48.404;9.498;2023-08-12T10:12:07;28.20;99.90
8402;DHT22;4238;48.404;9.498;2023-08-12T10:14:34;28.80;1.00
8402;DHT22;4238;48.404;9.498;2023-08-12T10:17:01;29.00;1.00
8402;DHT22;4238;48.404;9.498;2023-08-12T10:19:31;29.60;1.00
8402;DHT22;4238;48.404;9.498;2023-08-12T10:21:59;29.40;99.90
8402;DHT22;4238;48.404;9.498;2023-08-12T10:24:26;29.10;1.00
8402;DHT22;4238;48.404;9.498;2023-08-12T10:26:54;29.10;1.00
8402;DHT22;4238;48.404;9.498;2023-08-12T10:29:22;28.90;1.00
8402;DHT22;4238;48.404;9.498;2023-08-12T10:31:49;28.70;1.00
8402;DHT22;4238;48.404;9.498;2023-08-12T10:34:20;28.20;1.00
8402;DHT22;4238;48.404;9.498;2023-08-12T10:36:54;27.90;1.00
8402;DHT22;4238;48.404;9.498;2023-08-12T10:39:24;27.70;1.00
8402;DHT22;4238;48.404;9.498;2023-08-12T10:41:54;27.60;1.00
8402;DHT22;4238;48.404;9.498;2023-08-12T10:44:25;27.60;13.40
8402;DHT22;4238;48.404;9.498;2023-08-12T10:46:53;27.70;99.90
8402;DHT22;4238;48.404;9.498;2023-08-12T10:49:21;27.80;91.80
8402;DHT22;4238;48.404;9.498;2023-08-12T10:51:50;28.00;99.90
8402;DHT22;4238;48.404;9.498;2023-08-12T10:54:20;28.00;1.00
8402;DHT22;4238;48.404;9.498;2023-08-12T10:57:04;28.00;36.20
8402;DHT22;4238;48.404;9.498;2023-08-12T10:59:53;28.00;99.90
8402;DHT22;4238;48.404;9.498;2023-08-12T11:02:26;28.40;99.90
8402;DHT22;4238;48.404;9.498;2023-08-12T11:04:55;29.00;99.90
8402;DHT22;4238;48.404;9.498;2023-08-12T11:07:31;29.20;1.00
8402;DHT22;4238;48.404;9.498;2023-08-12T11:10:03;29.20;1.00
8402;DHT22;4238;48.404;9.498;2023-08-12T11:12:31;29.70;1.00
8402;DHT22;4238;48.404;9.498;2023-08-12T11:14:59;30.10;1.00
8402;DHT22;4238;48.404;9.498;2023-08-12T11:17:32;30.20;99.90
8402;DHT22;4238;48.404;9.498;2023-08-12T11:20:00;30.00;99.90
8402;DHT22;4238;48.404;9.498;2023-08-12T11:22:30;29.60;99.90
8402;DHT22;4238;48.404;9.498;2023-08-12T11:24:57;29.00;99.90
8402;DHT22;4238;48.404;9.498;2023-08-12T11:27:24;28.60;99.90
8402;DHT22;4238;48.404;9.498;2023-08-12T11:29:50;28.40;99.90
8402;DHT22;4238;48.404;9.498;2023-08-12T11:32:18;28.20;99.90
8402;DHT22;4238;48.404;9.498;2023-08-12T11:34:45;28.10;99.90
8402;DHT22;4238;48.404;9.498;2023-08-12T11:37:12;27.90;1.00
8402;DHT22;4238;48.404;9.498;2023-08-12T11:39:40;27.80;1.00
8402;DHT22;4238;48.404;9.498;2023-08-12T11:42:07;27.60;1.00
8402;DHT22;4238;48.404;9.498;2023-08-12T11:44:34;27.50;3.90
8402;DHT22;4238;48.404;9.498;2023-08-12T11:47:01;27.50;4.40
8402;DHT22;4238;48.404;9.498;2023-08-12T11:49:28;27.50;99.90
8402;DHT22;4238;48.404;9.498;2023-08-12T11:51:55;27.60;76.80
8402;DHT22;4238;48.404;9.498;2023-08-12T11:54:22;27.70;99.90
8402;DHT22;4238;48.404;9.498;2023-08-12T11:56:50;28.10;99.90
8402;DHT22;4238;48.404;9.498;2023-08-12T11:59:18;28.70;1.00
8402;DHT22;4238;48.404;9.498;2023-08-12T12:01:49;29.10;99.90
8402;DHT22;4238;48.404;9.498;2023-08-12T12:04:16;29.40;99.90
8402;DHT22;4238;48.404;9.498;2023-08-12T12:06:46;29.60;1.00
8402;DHT22;4238;48.404;9.498;2023-08-12T12:09:13;29.60;1.00
8402;DHT22;4238;48.404;9.498;2023-08-12T12:11:41;29.40;99.90
8402;DHT22;4238;48.404;9.498;2023-08-12T12:14:10;29.20;1.00
8402;DHT22;4238;48.404;9.498;2023-08-12T12:16:38;28.90;1.00
8402;DHT22;4238;48.404;9.498;2023-08-12T12:19:08;28.60;1.00
8402;DHT22;4238;48.404;9.498;2023-08-12T12:21:39;28.10;1.00
8402;DHT22;4238;48.404;9.498;2023-08-12T12:24:07;27.70;85.70
8402;DHT22;4238;48.404;9.498;2023-08-12T12:26:34;27.40;99.90
8402;DHT22;4238;48.404;9.498;2023-08-12T12:29:01;27.20;1.00
8402;DHT22;4238;48.404;9.498;2023-08-12T12:31:31;27.10;99.90
8402;DHT22;4238;48.404;9.498;2023-08-12T12:33:59;27.10;99.90
8402;DHT22;4238;48.404;9.498;2023-08-12T12:36:25;26.80;1.00
8402;DHT22;4238;48.404;9.498;2023-08-12T12:38:52;26.80;99.90
8402;DHT22;4238;48.404;9.498;2023-08-12T12:41:19;26.80;99.90
8402;DHT22;4238;48.404;9.498;2023-08-12T12:43:46;26.70;1.00
8402;DHT22;4238;48.404;9.498;2023-08-12T12:46:15;26.70;1.00
8402;DHT22;4238;48.404;9.498;2023-08-12T12:48:43;26.70;1.00
8402;DHT22;4238;48.404;9.498;2023-08-12T12:51:11;26.80;1.00
8402;DHT22;4238;48.404;9.498;2023-08-12T12:53:38;27.00;1.00
8402;DHT22;4238;48.404;9.498;2023-08-12T12:56:05;27.00;99.90
8402;DHT22;4238;48.404;9.498;2023-08-12T12:58:33;26.90;1.00
8402;DHT22;4238;48.404;9.498;2023-08-12T13:01:00;26.70;99.40
8402;DHT22;4238;48.404;9.498;2023-08-12T13:03:27;26.60;1.00
8402;DHT22;4238;48.404;9.498;2023-08-12T13:05:56;26.40;1.00
8402;DHT22;4238;48.404;9.498;2023-08-12T13:08:23;26.10;1.00
8402;DHT22;4238;48.404;9.498;2023-08-12T13:10:50;25.90;9.70
8402;DHT22;4238;48.404;9.498;2023-08-12T13:13:17;25.60;1.00
8402;DHT22;4238;48.404;9.498;2023-08-12T13:15:45;25.40;1.00
8402;DHT22;4238;48.404;9.498;2023-08-12T13:18:12;25.20;99.90
8402;DHT22;4238;48.404;9.498;2023-08-12T13:20:39;25.10;99.90
8402;DHT22;4238;48.404;9.498;2023-08-12T13:23:07;24.80;1.00
8402;DHT22;4238;48.404;9.498;2023-08-12T13:25:34;24.30;1.00
8402;DHT22;4238;48.404;9.498;2023-08-12T13:28:02;23.70;1.00
8402;DHT22;4238;48.404;9.498;2023-08-12T13:30:29;23.30;10.60
8402;DHT22;4238;48.404;9.498;2023-08-12T13:32:56;22.90;29.30
8402;DHT22;4238;48.404;9.498;2023-08-12T13:35:23;22.30;1.90
8402;DHT22;4238;48.404;9.498;2023-08-12T13:37:50;21.80;49.40
8402;DHT22;4238;48.404;9.498;2023-08-12T13:40:19;21.30;77.20
8402;DHT22;4238;48.404;9.498;2023-08-12T13:42:46;21.20;99.90
8402;DHT22;4238;48.404;9.498;2023-08-12T13:45:13;20.90;99.90
8402;DHT22;4238;48.404;9.498;2023-08-12T13:47:40;20.70;99.20
8402;DHT22;4238;48.404;9.498;2023-08-12T13:50:07;20.60;99.90
8402;DHT22;4238;48.404;9.498;2023-08-12T13:52:34;20.40;99.90
8402;DHT22;4238;48.404;9.498;2023-08-12T13:55:02;20.30;99.90
8402;DHT22;4238;48.404;9.498;2023-08-12T13:57:30;20.10;99.90
8402;DHT22;4238;48.404;9.498;2023-08-12T13:59:57;20.00;99.90
8402;DHT22;4238;48.404;9.498;2023-08-12T14:02:25;20.20;99.90
8402;DHT22;4238;48.404;9.498;2023-08-12T14:04:52;20.40;99.90
8402;DHT22;4238;48.404;9.498;2023-08-12T14:07:19;20.70;99.90
8402;DHT22;4238;48.404;9.498;2023-08-12T14:09:47;20.70;99.90
8402;DHT22;4238;48.404;9.498;2023-08-12T14:12:14;20.70;99.90
8402;DHT22;4238;48.404;9.498;2023-08-12T14:14:42;20.80;99.90
8402;DHT22;4238;48.404;9.498;2023-08-12T14:17:09;21.00;99.90
8402;DHT22;4238;48.404;9.498;2023-08-12T14:19:39;21.20;99.90
8402;DHT22;4238;48.404;9.498;2023-08-12T14:22:07;21.40;99.90
8402;DHT22;4238;48.404;9.498;2023-08-12T14:24:34;21.60;99.90
8402;DHT22;4238;48.404;9.498;2023-08-12T14:27:00;21.90;99.90
8402;DHT22;4238;48.404;9.498;2023-08-12T14:29:28;22.30;99.90
8402;DHT22;4238;48.404;9.498;2023-08-12T14:31:57;22.70;95.60
8402;DHT22;4238;48.404;9.498;2023-08-12T14:34:24;23.20;99.90
8402;DHT22;4238;48.404;9.498;2023-08-12T14:36:50;23.50;63.30
8402;DHT22;4238;48.404;9.498;2023-08-12T14:39:17;23.40;68.40
8402;DHT22;4238;48.404;9.498;2023-08-12T14:41:44;23.80;88.00
8402;DHT22;4238;48.404;9.498;2023-08-12T14:44:11;24.20;99.90
8402;DHT22;4238;48.404;9.498;2023-08-12T14:46:38;24.40;84.00
8402;DHT22;4238;48.404;9.498;2023-08-12T14:49:06;24.50;84.00
8402;DHT22;4238;48.404;9.498;2023-08-12T14:51:33;24.50;58.30
8402;DHT22;4238;48.404;9.498;2023-08-12T14:54:00;24.70;90.60
8402;DHT22;4238;48.404;9.498;2023-08-12T14:56:26;24.70;53.80
8402;DHT22;4238;48.404;9.498;2023-08-12T14:58:53;24.40;58.00
8402;DHT22;4238;48.404;9.498;2023-08-12T15:01:20;24.60;76.00
8402;DHT22;4238;48.404;9.498;2023-08-12T15:03:50;24.80;81.00
8402;DHT22;4238;48.404;9.498;2023-08-12T15:06:18;25.10;84.40
8402;DHT22;4238;48.404;9.498;2023-08-12T15:08:45;25.40;58.30
8402;DHT22;4238;48.404;9.498;2023-08-12T15:11:11;25.40;21.30
8402;DHT22;4238;48.404;9.498;2023-08-12T15:13:38;25.40;56.80
8402;DHT22;4238;48.404;9.498;2023-08-12T15:16:05;25.30;45.80
8402;DHT22;4238;48.404;9.498;2023-08-12T15:18:32;25.30;38.50
8402;DHT22;4238;48.404;9.498;2023-08-12T15:20:59;25.20;41.30
8402;DHT22;4238;48.404;9.498;2023-08-12T15:23:27;25.20;14.30
8402;DHT22;4238;48.404;9.498;2023-08-12T15:25:54;25.30;28.10
8402;DHT22;4238;48.404;9.498;2023-08-12T15:28:21;25.60;22.40
8402;DHT22;4238;48.404;9.498;2023-08-12T15:30:48;25.70;1.00
8402;DHT22;4238;48.404;9.498;2023-08-12T15:33:15;25.80;1.00
8402;DHT22;4238;48.404;9.498;2023-08-12T15:35:43;25.90;6.60
8402;DHT22;4238;48.404;9.498;2023-08-12T15:38:10;25.80;1.00
8402;DHT22;4238;48.404;9.498;2023-08-12T15:40:38;25.70;14.10
8402;DHT22;4238;48.404;9.498;2023-08-12T15:43:05;25.40;1.00
8402;DHT22;4238;48.404;9.498;2023-08-12T15:45:32;25.20;1.00
8402;DHT22;4238;48.404;9.498;2023-08-12T15:47:59;24.90;29.90
8402;DHT22;4238;48.404;9.498;2023-08-12T15:50:25;24.70;52.40
8402;DHT22;4238;48.404;9.498;2023-08-12T15:52:52;24.50;57.90
8402;DHT22;4238;48.404;9.498;2023-08-12T15:55:19;24.30;79.90
8402;DHT22;4238;48.404;9.498;2023-08-12T15:57:48;24.20;73.90
8402;DHT22;4238;48.404;9.498;2023-08-12T16:00:15;24.20;86.10
8402;DHT22;4238;48.404;9.498;2023-08-12T16:02:41;24.10;81.90
8402;DHT22;4238;48.404;9.498;2023-08-12T16:05:08;24.10;97.20
8402;DHT22;4238;48.404;9.498;2023-08-12T16:07:35;24.20;94.20
8402;DHT22;4238;48.404;9.498;2023-08-12T16:10:04;24.20;84.50
8402;DHT22;4238;48.404;9.498;2023-08-12T16:12:31;24.20;84.50
8402;DHT22;4238;48.404;9.498;2023-08-12T16:14:59;24.30;85.60
8402;DHT22;4238;48.404;9.498;2023-08-12T16:17:26;24.30;90.20
8402;DHT22;4238;48.404;9.498;2023-08-12T16:19:53;24.30;92.60
8402;DHT22;4238;48.404;9.498;2023-08-12T16:22:20;24.30;85.40
8402;DHT22;4238;48.404;9.498;2023-08-12T16:24:47;24.30;78.30
8402;DHT22;4238;48.404;9.498;2023-08-12T16:27:14;24.20;91.80
8402;DHT22;4238;48.404;9.498;2023-08-12T16:29:41;24.10;94.10
8402;DHT22;4238;48.404;9.498;2023-08-12T16:32:09;24.00;88.60
8402;DHT22;4238;48.404;9.498;2023-08-12T16:34:36;23.90;83.30
8402;DHT22;4238;48.404;9.498;2023-08-12T16:37:02;24.00;95.10
8402;DHT22;4238;48.404;9.498;2023-08-12T16:39:29;24.40;88.00
8402;DHT22;4238;48.404;9.498;2023-08-12T16:41:56;24.80;62.60
8402;DHT22;4238;48.404;9.498;2023-08-12T16:44:23;24.90;57.10
8402;DHT22;4238;48.404;9.498;2023-08-12T16:46:50;25.00;47.60
8402;DHT22;4238;48.404;9.498;2023-08-12T16:49:18;25.20;28.70
8402;DHT22;4238;48.404;9.498;2023-08-12T16:51:45;25.40;21.10
8402;DHT22;4238;48.404;9.498;2023-08-12T16:54:12;25.80;14.80
8402;DHT22;4238;48.404;9.498;2023-08-12T16:56:39;26.30;1.00
8402;DHT22;4238;48.404;9.498;2023-08-12T16:59:06;26.80;1.00
8402;DHT22;4238;48.404;9.498;2023-08-12T17:01:33;27.30;1.00
8402;DHT22;4238;48.404;9.498;2023-08-12T17:03:59;27.50;1.00
8402;DHT22;4238;48.404;9.498;2023-08-12T17:06:29;28.10;1.00
8402;DHT22;4238;48.404;9.498;2023-08-12T17:08:55;27.90;99.90
8402;DHT22;4238;48.404;9.498;2023-08-12T17:11:22;27.80;99.90
8402;DHT22;4238;48.404;9.498;2023-08-12T17:13:49;27.80;99.90
8402;DHT22;4238;48.404;9.498;2023-08-12T17:16:16;27.70;99.90
8402;DHT22;4238;48.404;9.498;2023-08-12T17:18:43;27.60;99.90
8402;DHT22;4238;48.404;9.498;2023-08-12T17:21:10;27.40;1.00
8402;DHT22;4238;48.404;9.498;2023-08-12T17:23:38;27.30;1.00
8402;DHT22;4238;48.404;9.498;2023-08-12T17:26:05;27.40;99.90
8402;DHT22;4238;48.404;9.498;2023-08-12T17:28:32;27.40;53.60
8402;DHT22;4238;48.404;9.498;2023-08-12T17:30:59;27.30;99.90
8402;DHT22;4238;48.404;9.498;2023-08-12T17:33:26;27.20;1.00
8402;DHT22;4238;48.404;9.498;2023-08-12T17:35:53;27.00;1.00
8402;DHT22;4238;48.404;9.498;2023-08-12T17:38:21;26.70;99.90
8402;DHT22;4238;48.404;9.498;2023-08-12T17:40:50;26.60;99.90
8402;DHT22;4238;48.404;9.498;2023-08-12T17:43:16;26.30;99.90
8402;DHT22;4238;48.404;9.498;2023-08-12T17:45:43;26.10;1.00
8402;DHT22;4238;48.404;9.498;2023-08-12T17:48:10;25.90;1.00
8402;DHT22;4238;48.404;9.498;2023-08-12T17:50:37;25.60;1.00
8402;DHT22;4238;48.404;9.498;2023-08-12T17:53:04;25.40;1.00
8402;DHT22;4238;48.404;9.498;2023-08-12T17:55:31;25.40;1.00
8402;DHT22;4238;48.404;9.498;2023-08-12T17:57:59;25.30;1.00
8402;DHT22;4238;48.404;9.498;2023-08-12T18:00:27;25.30;1.00
8402;DHT22;4238;48.404;9.498;2023-08-12T18:02:53;25.20;1.00
8402;DHT22;4238;48.404;9.498;2023-08-12T18:05:20;25.20;1.00
8402;DHT22;4238;48.404;9.498;2023-08-12T18:07:47;25.10;1.00
8402;DHT22;4238;48.404;9.498;2023-08-12T18:10:14;25.20;1.00
8402;DHT22;4238;48.404;9.498;2023-08-12T18:12:41;24.70;1.00
8402;DHT22;4238;48.404;9.498;2023-08-12T18:15:10;24.40;1.00
8402;DHT22;4238;48.404;9.498;2023-08-12T18:17:37;24.20;1.00
8402;DHT22;4238;48.404;9.498;2023-08-12T18:20:05;23.80;3.70
8402;DHT22;4238;48.404;9.498;2023-08-12T18:22:32;23.50;25.00
8402;DHT22;4238;48.404;9.498;2023-08-12T18:24:59;23.20;42.30
8402;DHT22;4238;48.404;9.498;2023-08-12T18:27:26;23.00;55.10
8402;DHT22;4238;48.404;9.498;2023-08-12T18:29:52;22.70;70.80
8402;DHT22;4238;48.404;9.498;2023-08-12T18:32:21;22.50;84.60
8402;DHT22;4238;48.404;9.498;2023-08-12T18:34:47;22.40;91.50
8402;DHT22;4238;48.404;9.498;2023-08-12T18:37:14;22.40;90.20
8402;DHT22;4238;48.404;9.498;2023-08-12T18:39:41;22.10;96.70
8402;DHT22;4238;48.404;9.498;2023-08-12T18:42:08;21.90;99.90
8402;DHT22;4238;48.404;9.498;2023-08-12T18:44:35;21.80;99.90
8402;DHT22;4238;48.404;9.498;2023-08-12T18:47:02;21.70;99.90
8402;DHT22;4238;48.404;9.498;2023-08-12T18:49:30;21.60;99.90
8402;DHT22;4238;48.404;9.498;2023-08-12T18:51:57;21.40;99.90
8402;DHT22;4238;48.404;9.498;2023-08-12T18:54:24;21.40;99.90
8402;DHT22;4238;48.404;9.498;2023-08-12T18:56:51;21.30;99.90
8402;DHT22;4238;48.404;9.498;2023-08-12T18:59:18;21.10;99.90
8402;DHT22;4238;48.404;9.498;2023-08-12T19:01:45;21.10;99.90
8402;DHT22;4238;48.404;9.498;2023-08-12T19:04:12;21.00;99.90
8402;DHT22;4238;48.404;9.498;2023-08-12T19:06:40;21.00;99.90
8402;DHT22;4238;48.404;9.498;2023-08-12T19:09:07;21.00;99.90
8402;DHT22;4238;48.404;9.498;2023-08-12T19:11:35;21.00;99.90
8402;DHT22;4238;48.404;9.498;2023-08-12T19:14:02;20.90;99.90
8402;DHT22;4238;48.404;9.498;2023-08-12T19:16:29;20.90;99.90
8402;DHT22;4238;48.404;9.498;2023-08-12T19:18:56;20.80;99.90
8402;DHT22;4238;48.404;9.498;2023-08-12T19:21:23;20.70;99.90
8402;DHT22;4238;48.404;9.498;2023-08-12T19:23:51;20.60;99.90
8402;DHT22;4238;48.404;9.498;2023-08-12T19:26:18;20.50;99.90
8402;DHT22;4238;48.404;9.498;2023-08-12T19:28:45;20.50;99.90
8402;DHT22;4238;48.404;9.498;2023-08-12T19:31:12;20.40;99.90
8402;DHT22;4238;48.404;9.498;2023-08-12T19:33:39;20.40;99.90
8402;DHT22;4238;48.404;9.498;2023-08-12T19:36:06;20.40;99.90
8402;DHT22;4238;48.404;9.498;2023-08-12T19:38:33;20.40;99.90
8402;DHT22;4238;48.404;9.498;2023-08-12T19:41:02;20.40;99.90
8402;DHT22;4238;48.404;9.498;2023-08-12T19:43:29;20.40;99.90
8402;DHT22;4238;48.404;9.498;2023-08-12T19:45:56;20.40;99.90
8402;DHT22;4238;48.404;9.498;2023-08-12T19:48:23;20.50;99.90
8402;DHT22;4238;48.404;9.498;2023-08-12T19:50:51;20.40;99.90
8402;DHT22;4238;48.404;9.498;2023-08-12T19:53:19;20.40;99.90
8402;DHT22;4238;48.404;9.498;2023-08-12T19:55:46;20.30;99.90
8402;DHT22;4238;48.404;9.498;2023-08-12T19:58:14;20.40;99.90
8402;DHT22;4238;48.404;9.498;2023-08-12T20:00:41;20.30;99.90
8402;DHT22;4238;48.404;9.498;2023-08-12T20:03:08;20.30;99.90
8402;DHT22;4238;48.404;9.498;2023-08-12T20:05:35;20.30;99.90
8402;DHT22;4238;48.404;9.498;2023-08-12T20:08:02;20.30;99.90